sensor_id;sensor_type;location;lat;lon;timestamp;pressure;altitude;pressure_sealevel;temperature;humidity
60974;BME280;46846;51.528;5.076;2023-02-13T00:02:15;103187.28;;;6.36;76.88
60974;BME280;46846;51.528;5.076;2023-02-13T00:04:41;103183.72;;;6.35;77.33
60974;BME280;46846;51.528;5.076;2023-02-13T00:07:10;103182.00;;;6.36;77.52
60974;BME280;46846;51.528;5.076;2023-02-13T00:09:39;103177.63;;;6.38;76.93
60974;BME280;46846;51.528;5.076;2023-02-13T00:12:05;103178.44;;;6.35;77.68
60974;BME280;46846;51.528;5.076;2023-02-13T00:14:34;103177.53;;;6.33;77.31
60974;BME280;46846;51.528;5.076;2023-02-13T00:17:00;103176.63;;;6.31;77.21
60974;BME280;46846;51.528;5.076;2023-02-13T00:19:25;103175.72;;;6.31;77.41
60974;BME280;46846;51.528;5.076;2023-02-13T00:21:51;103173.94;;;6.29;77.67
60974;BME280;46846;51.528;5.076;2023-02-13T00:24:16;103172.16;;;6.28;77.80
60974;BME280;46846;51.528;5.076;2023-02-13T00:26:42;103173.88;;;6.28;77.72
60974;BME280;46846;51.528;5.076;2023-02-13T00:29:07;103169.47;;;6.27;77.48
60974;BME280;46846;51.528;5.076;2023-02-13T00:31:32;103170.28;;;6.24;77.84
60974;BME280;46846;51.528;5.076;2023-02-13T00:33:58;103165.81;;;6.20;77.93
60974;BME280;46846;51.528;5.076;2023-02-13T00:36:23;103157.94;;;6.23;77.79
60974;BME280;46846;51.528;5.076;2023-02-13T00:38:49;103165.84;;;6.23;78.34
60974;BME280;46846;51.528;5.076;2023-02-13T00:41:15;103155.16;;;6.17;78.44
60974;BME280;46846;51.528;5.076;2023-02-13T00:43:45;103154.22;;;6.15;78.38
60974;BME280;46846;51.528;5.076;2023-02-13T00:46:11;103157.91;;;6.22;78.33
60974;BME280;46846;51.528;5.076;2023-02-13T00:48:36;103162.38;;;6.26;78.03
60974;BME280;46846;51.528;5.076;2023-02-13T00:51:03;103161.53;;;6.25;77.67
60974;BME280;46846;51.528;5.076;2023-02-13T00:53:29;103157.16;;;6.27;77.48
60974;BME280;46846;51.528;5.076;2023-02-13T00:55:54;103155.38;;;6.26;77.93
60974;BME280;46846;51.528;5.076;2023-02-13T00:58:20;103159.78;;;6.27;77.81
60974;BME280;46846;51.528;5.076;2023-02-13T01:00:46;103156.25;;;6.27;77.57
60974;BME280;46846;51.528;5.076;2023-02-13T01:03:15;103153.63;;;6.28;77.44
60974;BME280;46846;51.528;5.076;2023-02-13T01:05:42;103154.53;;;6.29;77.83
60974;BME280;46846;51.528;5.076;2023-02-13T01:08:08;103145.66;;;6.25;77.31
60974;BME280;46846;51.528;5.076;2023-02-13T01:10:36;103148.28;;;6.25;77.35
60974;BME280;46846;51.528;5.076;2023-02-13T01:13:01;103151.81;;;6.26;77.32
60974;BME280;46846;51.528;5.076;2023-02-13T01:15:27;103147.41;;;6.25;77.33
60974;BME280;46846;51.528;5.076;2023-02-13T01:17:53;103143.84;;;6.24;77.83
60974;BME280;46846;51.528;5.076;2023-02-13T01:20:19;103150.91;;;6.24;77.71
60974;BME280;46846;51.528;5.076;2023-02-13T01:22:44;103147.34;;;6.22;77.66
60974;BME280;46846;51.528;5.076;2023-02-13T01:25:10;103149.03;;;6.20;78.07
60974;BME280;46846;51.528;5.076;2023-02-13T01:27:36;103147.31;;;6.20;78.15
60974;BME280;46846;51.528;5.076;2023-02-13T01:30:04;103144.66;;;6.20;77.92
60974;BME280;46846;51.528;5.076;2023-02-13T01:32:30;103141.09;;;6.20;78.19
60974;BME280;46846;51.528;5.076;2023-02-13T01:34:55;103139.41;;;6.22;77.89
60974;BME280;46846;51.528;5.076;2023-02-13T01:37:20;103145.53;;;6.21;77.80
60974;BME280;46846;51.528;5.076;2023-02-13T01:39:46;103141.06;;;6.17;77.71
60974;BME280;46846;51.528;5.076;2023-02-13T01:42:20;103138.41;;;6.17;77.92
60974;BME280;46846;51.528;5.076;2023-02-13T01:44:54;103137.53;;;6.18;78.45
60974;BME280;46846;51.528;5.076;2023-02-13T01:49:49;103131.34;;;6.15;78.23
60974;BME280;46846;51.528;5.076;2023-02-13T01:52:18;103128.69;;;6.15;77.62
60974;BME280;46846;51.528;5.076;2023-02-13T01:54:44;103135.69;;;6.13;77.79
60974;BME280;46846;51.528;5.076;2023-02-13T01:57:22;103135.63;;;6.10;78.50
60974;BME280;46846;51.528;5.076;2023-02-13T02:00:10;103128.56;;;6.09;78.69
60974;BME280;46846;51.528;5.076;2023-02-13T02:02:38;103132.94;;;6.07;78.78
60974;BME280;46846;51.528;5.076;2023-02-13T02:05:07;103134.63;;;6.04;78.66
60974;BME280;46846;51.528;5.076;2023-02-13T02:07:33;103133.72;;;6.03;78.45
60974;BME280;46846;51.528;5.076;2023-02-13T02:10:10;103131.94;;;6.02;78.93
60974;BME280;46846;51.528;5.076;2023-02-13T02:12:53;103129.13;;;5.96;79.40
60974;BME280;46846;51.528;5.076;2023-02-13T02:15:21;103134.34;;;5.94;78.79
60974;BME280;46846;51.528;5.076;2023-02-13T02:17:47;103127.28;;;5.93;79.18
60974;BME280;46846;51.528;5.076;2023-02-13T02:33:45;103136.84;;;5.86;79.48
60974;BME280;46846;51.528;5.076;2023-02-13T02:36:40;103132.44;;;5.87;79.67
60974;BME280;46846;51.528;5.076;2023-02-13T02:41:56;103126.13;;;5.80;79.24
60974;BME280;46846;51.528;5.076;2023-02-13T02:47:06;103125.19;;;5.77;79.59
60974;BME280;46846;51.528;5.076;2023-02-13T02:50:00;103118.03;;;5.72;80.10
60974;BME280;46846;51.528;5.076;2023-02-13T02:53:21;103121.47;;;5.68;80.14
60974;BME280;46846;51.528;5.076;2023-02-13T02:55:30;103116.19;;;5.68;80.08
60974;BME280;46846;51.528;5.076;2023-02-13T02:58:10;103113.50;;;5.67;80.02
60974;BME280;46846;51.528;5.076;2023-02-13T03:00:57;103119.59;;;5.63;79.86
60974;BME280;46846;51.528;5.076;2023-02-13T03:03:43;103117.75;;;5.60;80.18
60974;BME280;46846;51.528;5.076;2023-02-13T03:06:52;103118.56;;;5.57;80.22
60974;BME280;46846;51.528;5.076;2023-02-13T03:09:23;103114.16;;;5.56;79.83
60974;BME280;46846;51.528;5.076;2023-02-13T03:12:10;103109.69;;;5.54;80.37
60974;BME280;46846;51.528;5.076;2023-02-13T03:14:56;103114.94;;;5.52;80.30
60974;BME280;46846;51.528;5.076;2023-02-13T03:17:22;103106.13;;;5.52;80.28
60974;BME280;46846;51.528;5.076;2023-02-13T03:23:14;103114.81;;;5.47;80.20
60974;BME280;46846;51.528;5.076;2023-02-13T03:26:25;103105.06;;;5.43;80.33
60974;BME280;46846;51.528;5.076;2023-02-13T03:28:59;103111.16;;;5.41;80.16
60974;BME280;46846;51.528;5.076;2023-02-13T03:31:52;103107.66;;;5.42;80.39
60974;BME280;46846;51.528;5.076;2023-02-13T03:34:29;103113.69;;;5.38;80.32
60974;BME280;46846;51.528;5.076;2023-02-13T03:37:17;103116.28;;;5.34;80.34
60974;BME280;46846;51.528;5.076;2023-02-13T03:40:09;103108.38;;;5.34;80.22
60974;BME280;46846;51.528;5.076;2023-02-13T03:42:42;103122.38;;;5.32;80.63
60974;BME280;46846;51.528;5.076;2023-02-13T03:45:13;103116.13;;;5.28;80.61
60974;BME280;46846;51.528;5.076;2023-02-13T03:48:00;103120.50;;;5.26;80.51
60974;BME280;46846;51.528;5.076;2023-02-13T03:50:35;103118.72;;;5.25;80.57
60974;BME280;46846;51.528;5.076;2023-02-13T03:53:09;103116.88;;;5.23;80.79
60974;BME280;46846;51.528;5.076;2023-02-13T03:55:44;103122.09;;;5.21;81.30
60974;BME280;46846;51.528;5.076;2023-02-13T03:58:33;103119.47;;;5.21;80.70
60974;BME280;46846;51.528;5.076;2023-02-13T04:01:21;103124.69;;;5.18;80.52
60974;BME280;46846;51.528;5.076;2023-02-13T04:03:57;103116.66;;;5.15;80.64
60974;BME280;46846;51.528;5.076;2023-02-13T04:06:49;103119.31;;;5.15;80.80
60974;BME280;46846;51.528;5.076;2023-02-13T04:09:15;103115.75;;;5.13;80.37
60974;BME280;46846;51.528;5.076;2023-02-13T04:11:51;103116.59;;;5.12;80.72
60974;BME280;46846;51.528;5.076;2023-02-13T04:14:44;103112.25;;;5.14;79.94
60974;BME280;46846;51.528;5.076;2023-02-13T04:17:23;103110.41;;;5.10;80.07
60974;BME280;46846;51.528;5.076;2023-02-13T04:19:49;103119.16;;;5.09;80.75
60974;BME280;46846;51.528;5.076;2023-02-13T04:22:15;103118.28;;;5.08;80.96
60974;BME280;46846;51.528;5.076;2023-02-13T04:24:41;103114.66;;;5.04;80.79
60974;BME280;46846;51.528;5.076;2023-02-13T04:27:06;103115.53;;;5.03;80.71
60974;BME280;46846;51.528;5.076;2023-02-13T04:29:32;103115.47;;;5.02;80.82
60974;BME280;46846;51.528;5.076;2023-02-13T04:31:57;103115.41;;;4.99;80.39
60974;BME280;46846;51.528;5.076;2023-02-13T04:34:22;103111.00;;;4.99;81.01
60974;BME280;46846;51.528;5.076;2023-02-13T04:36:48;103111.94;;;5.01;80.88
60974;BME280;46846;51.528;5.076;2023-02-13T04:39:13;103099.53;;;4.97;81.06
60974;BME280;46846;51.528;5.076;2023-02-13T04:41:39;103109.22;;;4.98;80.65
60974;BME280;46846;51.528;5.076;2023-02-13T04:44:04;103102.16;;;4.97;80.69
60974;BME280;46846;51.528;5.076;2023-02-13T04:46:30;103103.88;;;4.95;80.88
60974;BME280;46846;51.528;5.076;2023-02-13T04:48:55;103102.94;;;4.93;80.31
60974;BME280;46846;51.528;5.076;2023-02-13T04:51:20;103107.22;;;4.89;80.58
60974;BME280;46846;51.528;5.076;2023-02-13T04:53:46;103101.88;;;4.86;81.17
60974;BME280;46846;51.528;5.076;2023-02-13T04:56:11;103107.16;;;4.86;80.73
60974;BME280;46846;51.528;5.076;2023-02-13T04:58:37;103097.47;;;4.85;80.81
60974;BME280;46846;51.528;5.076;2023-02-13T05:01:10;103099.19;;;4.83;80.93
60974;BME280;46846;51.528;5.076;2023-02-13T05:03:35;103100.00;;;4.81;80.60
60974;BME280;46846;51.528;5.076;2023-02-13T05:06:01;103099.91;;;4.77;80.73
60974;BME280;46846;51.528;5.076;2023-02-13T05:08:26;103097.25;;;4.76;81.39
60974;BME280;46846;51.528;5.076;2023-02-13T05:10:51;103098.06;;;4.75;80.63
60974;BME280;46846;51.528;5.076;2023-02-13T05:13:17;103099.81;;;4.74;80.61
60974;BME280;46846;51.528;5.076;2023-02-13T05:15:46;103105.00;;;4.71;80.71
60974;BME280;46846;51.528;5.076;2023-02-13T05:18:12;103105.84;;;4.70;80.96
60974;BME280;46846;51.528;5.076;2023-02-13T05:20:37;103105.78;;;4.67;81.09
60974;BME280;46846;51.528;5.076;2023-02-13T05:23:02;103105.69;;;4.64;81.19
60974;BME280;46846;51.528;5.076;2023-02-13T05:25:47;103110.09;;;4.63;80.69
60974;BME280;46846;51.528;5.076;2023-02-13T05:28:12;103111.81;;;4.63;80.52
60974;BME280;46846;51.528;5.076;2023-02-13T05:30:57;103116.16;;;4.61;80.72
60974;BME280;46846;51.528;5.076;2023-02-13T05:33:22;103122.28;;;4.60;80.76
60974;BME280;46846;51.528;5.076;2023-02-13T05:35:48;103114.34;;;4.58;80.86
60974;BME280;46846;51.528;5.076;2023-02-13T05:38:13;103110.81;;;4.58;80.58
60974;BME280;46846;51.528;5.076;2023-02-13T05:40:38;103108.13;;;4.56;81.00
60974;BME280;46846;51.528;5.076;2023-02-13T05:43:04;103107.22;;;4.54;80.78
60974;BME280;46846;51.528;5.076;2023-02-13T05:45:29;103106.22;;;4.50;80.68
60974;BME280;46846;51.528;5.076;2023-02-13T05:47:54;103108.88;;;4.50;81.16
60974;BME280;46846;51.528;5.076;2023-02-13T05:50:20;103098.25;;;4.49;80.64
60974;BME280;46846;51.528;5.076;2023-02-13T05:52:45;103104.44;;;4.49;81.15
60974;BME280;46846;51.528;5.076;2023-02-13T05:55:11;103111.44;;;4.49;79.99
60974;BME280;46846;51.528;5.076;2023-02-13T05:57:36;103107.88;;;4.47;80.41
60974;BME280;46846;51.528;5.076;2023-02-13T06:00:05;103113.19;;;4.48;80.87
60974;BME280;46846;51.528;5.076;2023-02-13T06:02:30;103104.44;;;4.49;80.57
60974;BME280;46846;51.528;5.076;2023-02-13T06:04:56;103113.19;;;4.48;80.06
60974;BME280;46846;51.528;5.076;2023-02-13T06:07:21;103113.16;;;4.47;80.29
60974;BME280;46846;51.528;5.076;2023-02-13T06:09:46;103117.47;;;4.45;80.41
60974;BME280;46846;51.528;5.076;2023-02-13T06:12:12;103119.19;;;4.43;80.78
60974;BME280;46846;51.528;5.076;2023-02-13T06:14:37;103111.19;;;4.40;80.67
60974;BME280;46846;51.528;5.076;2023-02-13T06:17:02;103107.59;;;4.37;80.33
60974;BME280;46846;51.528;5.076;2023-02-13T06:19:28;103109.31;;;4.35;80.22
60974;BME280;46846;51.528;5.076;2023-02-13T06:21:53;103107.59;;;4.36;80.03
60974;BME280;46846;51.528;5.076;2023-02-13T06:24:18;103117.16;;;4.34;80.46
60974;BME280;46846;51.528;5.076;2023-02-13T06:26:44;103110.09;;;4.31;80.38
60974;BME280;46846;51.528;5.076;2023-02-13T06:29:09;103111.81;;;4.31;79.89
60974;BME280;46846;51.528;5.076;2023-02-13T06:31:36;103113.56;;;4.30;80.63
60974;BME280;46846;51.528;5.076;2023-02-13T06:34:02;103117.91;;;4.28;80.21
60974;BME280;46846;51.528;5.076;2023-02-13T06:36:27;103113.41;;;4.26;80.38
60974;BME280;46846;51.528;5.076;2023-02-13T06:38:53;103116.13;;;4.27;79.97
60974;BME280;46846;51.528;5.076;2023-02-13T06:41:18;103121.34;;;4.26;80.31
60974;BME280;46846;51.528;5.076;2023-02-13T06:43:44;103120.41;;;4.23;80.02
60974;BME280;46846;51.528;5.076;2023-02-13T06:46:09;103117.72;;;4.22;80.44
60974;BME280;46846;51.528;5.076;2023-02-13T06:48:35;103116.78;;;4.20;80.05
60974;BME280;46846;51.528;5.076;2023-02-13T06:51:00;103113.22;;;4.18;80.25
60974;BME280;46846;51.528;5.076;2023-02-13T06:53:26;103115.84;;;4.18;80.39
60974;BME280;46846;51.528;5.076;2023-02-13T06:55:52;103116.66;;;4.15;80.39
60974;BME280;46846;51.528;5.076;2023-02-13T06:58:23;103119.28;;;4.15;79.90
60974;BME280;46846;51.528;5.076;2023-02-13T07:00:50;103116.66;;;4.15;80.21
60974;BME280;46846;51.528;5.076;2023-02-13T07:03:16;103107.75;;;4.12;79.91
60974;BME280;46846;51.528;5.076;2023-02-13T07:05:43;103106.91;;;4.13;79.99
60974;BME280;46846;51.528;5.076;2023-02-13T07:08:10;103120.94;;;4.12;79.76
60974;BME280;46846;51.528;5.076;2023-02-13T07:10:40;103114.75;;;4.11;79.74
60974;BME280;46846;51.528;5.076;2023-02-13T07:13:05;103125.31;;;4.11;79.93
60974;BME280;46846;51.528;5.076;2023-02-13T07:15:32;103126.94;;;4.06;79.80
60974;BME280;46846;51.528;5.076;2023-02-13T07:17:58;103125.94;;;4.02;80.28
60974;BME280;46846;51.528;5.076;2023-02-13T07:20:24;103132.88;;;4.00;80.16
60974;BME280;46846;51.528;5.076;2023-02-13T07:22:50;103128.53;;;4.01;80.31
60974;BME280;46846;51.528;5.076;2023-02-13T07:25:16;103131.06;;;3.97;80.11
60974;BME280;46846;51.528;5.076;2023-02-13T07:27:41;103124.00;;;3.96;80.47
60974;BME280;46846;51.528;5.076;2023-02-13T07:30:07;103124.97;;;3.99;80.09
60974;BME280;46846;51.528;5.076;2023-02-13T07:32:36;103129.19;;;3.93;80.10
60974;BME280;46846;51.528;5.076;2023-02-13T07:35:02;103133.59;;;3.94;80.12
60974;BME280;46846;51.528;5.076;2023-02-13T07:37:28;103127.53;;;3.97;80.36
60974;BME280;46846;51.528;5.076;2023-02-13T07:39:54;103132.72;;;3.94;80.14
60974;BME280;46846;51.528;5.076;2023-02-13T07:42:19;103133.47;;;3.90;79.99
60974;BME280;46846;51.528;5.076;2023-02-13T07:44:45;103137.84;;;3.89;80.32
60974;BME280;46846;51.528;5.076;2023-02-13T07:47:10;103147.47;;;3.89;80.23
60974;BME280;46846;51.528;5.076;2023-02-13T07:49:35;103136.09;;;3.90;80.52
60974;BME280;46846;51.528;5.076;2023-02-13T07:52:02;103143.00;;;3.86;80.70
60974;BME280;46846;51.528;5.076;2023-02-13T07:54:28;103148.22;;;3.85;80.75
60974;BME280;46846;51.528;5.076;2023-02-13T07:56:54;103141.03;;;3.79;79.92
60974;BME280;46846;51.528;5.076;2023-02-13T07:59:19;103143.53;;;3.74;80.32
60974;BME280;46846;51.528;5.076;2023-02-13T08:01:44;103138.31;;;3.76;80.76
60974;BME280;46846;51.528;5.076;2023-02-13T08:04:10;103135.56;;;3.73;80.83
60974;BME280;46846;51.528;5.076;2023-02-13T08:06:38;103136.41;;;3.72;80.80
60974;BME280;46846;51.528;5.076;2023-02-13T08:09:04;103136.41;;;3.72;80.53
60974;BME280;46846;51.528;5.076;2023-02-13T08:11:48;103149.69;;;3.75;80.65
60974;BME280;46846;51.528;5.076;2023-02-13T08:14:24;103147.84;;;3.72;80.01
60974;BME280;46846;51.528;5.076;2023-02-13T08:16:50;103156.59;;;3.71;80.58
60974;BME280;46846;51.528;5.076;2023-02-13T08:19:16;103152.22;;;3.72;80.59
60974;BME280;46846;51.528;5.076;2023-02-13T08:21:41;103157.28;;;3.65;80.87
60974;BME280;46846;51.528;5.076;2023-02-13T08:24:08;103156.50;;;3.68;80.73
60974;BME280;46846;51.528;5.076;2023-02-13T08:26:33;103164.69;;;3.77;80.44
60974;BME280;46846;51.528;5.076;2023-02-13T08:28:59;103161.06;;;3.74;80.58
60974;BME280;46846;51.528;5.076;2023-02-13T08:31:25;103161.16;;;3.77;79.99
60974;BME280;46846;51.528;5.076;2023-02-13T08:33:50;103166.31;;;3.74;80.36
60974;BME280;46846;51.528;5.076;2023-02-13T08:36:16;103164.66;;;3.76;80.22
60974;BME280;46846;51.528;5.076;2023-02-13T08:38:43;103172.56;;;3.76;79.73
60974;BME280;46846;51.528;5.076;2023-02-13T08:41:08;103167.28;;;3.76;79.96
60974;BME280;46846;51.528;5.076;2023-02-13T08:43:34;103162.88;;;3.76;79.90
60974;BME280;46846;51.528;5.076;2023-02-13T08:46:00;103168.13;;;3.75;79.98
60974;BME280;46846;51.528;5.076;2023-02-13T08:48:26;103177.69;;;3.73;80.37
60974;BME280;46846;51.528;5.076;2023-02-13T08:50:51;103172.34;;;3.69;79.98
60974;BME280;46846;51.528;5.076;2023-02-13T08:53:17;103167.16;;;3.73;80.43
60974;BME280;46846;51.528;5.076;2023-02-13T08:55:42;103173.41;;;3.75;79.94
60974;BME280;46846;51.528;5.076;2023-02-13T08:58:07;103175.06;;;3.73;80.46
60974;BME280;46846;51.528;5.076;2023-02-13T09:00:33;103176.91;;;3.75;79.77
60974;BME280;46846;51.528;5.076;2023-02-13T09:03:02;103175.78;;;3.67;80.08
60974;BME280;46846;51.528;5.076;2023-02-13T09:05:28;103173.41;;;3.75;80.22
60974;BME280;46846;51.528;5.076;2023-02-13T09:07:58;103174.47;;;3.81;80.12
60974;BME280;46846;51.528;5.076;2023-02-13T09:10:24;103176.25;;;3.82;79.79
60974;BME280;46846;51.528;5.076;2023-02-13T09:12:52;103178.09;;;3.85;79.72
60974;BME280;46846;51.528;5.076;2023-02-13T09:15:18;103171.25;;;3.90;79.25
60974;BME280;46846;51.528;5.076;2023-02-13T09:17:43;103184.09;;;3.81;79.02
60974;BME280;46846;51.528;5.076;2023-02-13T09:20:09;103182.72;;;3.92;79.72
60974;BME280;46846;51.528;5.076;2023-02-13T09:22:36;103183.72;;;3.96;79.14
60974;BME280;46846;51.528;5.076;2023-02-13T09:25:01;103178.25;;;3.90;79.08
60974;BME280;46846;51.528;5.076;2023-02-13T09:27:28;103180.03;;;3.91;79.09
60974;BME280;46846;51.528;5.076;2023-02-13T09:29:54;103181.13;;;3.97;79.46
60974;BME280;46846;51.528;5.076;2023-02-13T09:32:19;103175.88;;;3.97;79.16
60974;BME280;46846;51.528;5.076;2023-02-13T09:34:45;103179.69;;;4.09;79.02
60974;BME280;46846;51.528;5.076;2023-02-13T09:37:10;103187.59;;;4.09;78.21
60974;BME280;46846;51.528;5.076;2023-02-13T09:39:36;103186.88;;;4.13;78.94
60974;BME280;46846;51.528;5.076;2023-02-13T09:42:05;103187.81;;;4.15;78.29
60974;BME280;46846;51.528;5.076;2023-02-13T09:44:38;103182.66;;;4.20;78.37
60974;BME280;46846;51.528;5.076;2023-02-13T09:49:56;103179.47;;;4.01;79.27
60974;BME280;46846;51.528;5.076;2023-02-13T09:52:26;103177.19;;;4.12;78.17
60974;BME280;46846;51.528;5.076;2023-02-13T09:54:52;103177.19;;;4.14;78.19
60974;BME280;46846;51.528;5.076;2023-02-13T09:57:33;103177.31;;;4.17;78.77
60974;BME280;46846;51.528;5.076;2023-02-13T10:00:03;103182.78;;;4.23;78.49
60974;BME280;46846;51.528;5.076;2023-02-13T10:16:44;103183.72;;;4.27;77.44
60974;BME280;46846;51.528;5.076;2023-02-13T10:19:31;103168.91;;;4.30;77.68
60974;BME280;46846;51.528;5.076;2023-02-13T10:22:04;103179.41;;;4.29;78.26
60974;BME280;46846;51.528;5.076;2023-02-13T10:24:45;103169.81;;;4.31;78.44
60974;BME280;46846;51.528;5.076;2023-02-13T10:27:22;103169.88;;;4.34;77.97
60974;BME280;46846;51.528;5.076;2023-02-13T10:30:04;103172.63;;;4.37;77.85
60974;BME280;46846;51.528;5.076;2023-02-13T10:35:29;103170.97;;;4.41;78.05
60974;BME280;46846;51.528;5.076;2023-02-13T10:37:58;103170.06;;;4.38;77.97
60974;BME280;46846;51.528;5.076;2023-02-13T10:40:30;103171.06;;;4.44;78.88
60974;BME280;46846;51.528;5.076;2023-02-13T10:43:07;103171.03;;;4.42;79.15
60974;BME280;46846;51.528;5.076;2023-02-13T10:45:55;103166.56;;;4.41;78.90
60974;BME280;46846;51.528;5.076;2023-02-13T10:48:47;103161.41;;;4.44;78.88
60974;BME280;46846;51.528;5.076;2023-02-13T10:51:49;103163.16;;;4.44;78.41
60974;BME280;46846;51.528;5.076;2023-02-13T11:00:04;103156.22;;;4.47;79.47
60974;BME280;46846;51.528;5.076;2023-02-13T11:02:31;103148.66;;;4.29;78.02
60974;BME280;46846;51.528;5.076;2023-02-13T11:05:05;103144.50;;;4.37;79.06
60974;BME280;46846;51.528;5.076;2023-02-13T11:07:35;103144.56;;;4.39;79.19
60974;BME280;46846;51.528;5.076;2023-02-13T11:10:04;103135.84;;;4.42;79.74
60974;BME280;46846;51.528;5.076;2023-02-13T11:12:37;103144.88;;;4.50;80.41
60974;BME280;46846;51.528;5.076;2023-02-13T11:15:19;103136.09;;;4.49;80.26
60974;BME280;46846;51.528;5.076;2023-02-13T11:17:45;103134.25;;;4.47;80.32
60974;BME280;46846;51.528;5.076;2023-02-13T11:22:48;103131.75;;;4.51;80.50
60974;BME280;46846;51.528;5.076;2023-02-13T11:25:19;103130.09;;;4.55;80.35
60974;BME280;46846;51.528;5.076;2023-02-13T11:27:49;103129.97;;;4.50;79.68
60974;BME280;46846;51.528;5.076;2023-02-13T11:33:04;103124.63;;;4.49;79.86
60974;BME280;46846;51.528;5.076;2023-02-13T11:35:35;103126.47;;;4.51;80.28
60974;BME280;46846;51.528;5.076;2023-02-13T11:38:27;103121.38;;;4.58;80.96
60974;BME280;46846;51.528;5.076;2023-02-13T11:43:48;103112.59;;;4.59;80.32
60974;BME280;46846;51.528;5.076;2023-02-13T11:46:24;103117.94;;;4.62;81.28
60974;BME280;46846;51.528;5.076;2023-02-13T11:49:03;103118.03;;;4.65;81.27
60974;BME280;46846;51.528;5.076;2023-02-13T11:51:50;103114.56;;;4.66;81.35
60974;BME280;46846;51.528;5.076;2023-02-13T11:59:55;103094.34;;;4.67;81.23
60974;BME280;46846;51.528;5.076;2023-02-13T12:02:22;103098.69;;;4.64;80.59
60974;BME280;46846;51.528;5.076;2023-02-13T12:04:54;103097.88;;;4.67;81.02
60974;BME280;46846;51.528;5.076;2023-02-13T12:07:24;103104.94;;;4.36;78.78
60974;BME280;46846;51.528;5.076;2023-02-13T12:10:06;103090.44;;;4.52;80.81
60974;BME280;46846;51.528;5.076;2023-02-13T12:12:43;103089.56;;;4.51;79.57
60974;BME280;46846;51.528;5.076;2023-02-13T12:15:20;103082.75;;;4.60;79.79
60974;BME280;46846;51.528;5.076;2023-02-13T12:17:52;103079.00;;;4.51;80.02
60974;BME280;46846;51.528;5.076;2023-02-13T12:20:21;103077.59;;;4.64;80.86
60974;BME280;46846;51.528;5.076;2023-02-13T12:25:54;103082.41;;;4.47;79.76
60974;BME280;46846;51.528;5.076;2023-02-13T12:28:27;103063.25;;;4.55;80.43
60974;BME280;46846;51.528;5.076;2023-02-13T12:39:32;103060.56;;;4.51;79.31
60974;BME280;46846;51.528;5.076;2023-02-13T12:47:23;103048.66;;;4.68;80.57
60974;BME280;46846;51.528;5.076;2023-02-13T12:49:59;103046.22;;;4.75;80.71
60974;BME280;46846;51.528;5.076;2023-02-13T12:57:50;103045.88;;;4.63;80.78
60974;BME280;46846;51.528;5.076;2023-02-13T13:03:27;103036.59;;;4.44;80.03
60974;BME280;46846;51.528;5.076;2023-02-13T13:11:28;103030.56;;;4.48;80.67
60974;BME280;46846;51.528;5.076;2023-02-13T13:17:02;103028.13;;;4.56;80.34
60974;BME280;46846;51.528;5.076;2023-02-13T13:19:55;103023.59;;;4.50;81.18
60974;BME280;46846;51.528;5.076;2023-02-13T13:22:32;103025.66;;;4.62;80.89
60974;BME280;46846;51.528;5.076;2023-02-13T13:27:33;103017.75;;;4.62;80.61
60974;BME280;46846;51.528;5.076;2023-02-13T13:30:18;103014.25;;;4.63;80.91
60974;BME280;46846;51.528;5.076;2023-02-13T13:32:49;103011.78;;;4.69;81.03
60974;BME280;46846;51.528;5.076;2023-02-13T13:35:18;103009.81;;;4.60;80.92
60974;BME280;46846;51.528;5.076;2023-02-13T13:37:55;103007.50;;;4.74;80.74
60974;BME280;46846;51.528;5.076;2023-02-13T13:43:21;103003.25;;;4.79;80.33
60974;BME280;46846;51.528;5.076;2023-02-13T13:46:13;102998.75;;;4.75;80.03
60974;BME280;46846;51.528;5.076;2023-02-13T13:48:49;102998.03;;;4.83;80.82
60974;BME280;46846;51.528;5.076;2023-02-13T13:51:19;102991.13;;;4.88;80.76
60974;BME280;46846;51.528;5.076;2023-02-13T13:56:30;102990.44;;;4.95;80.21
60974;BME280;46846;51.528;5.076;2023-02-13T14:07:44;102988.59;;;4.92;80.02
60974;BME280;46846;51.528;5.076;2023-02-13T14:15:50;102979.19;;;5.04;79.92
60974;BME280;46846;51.528;5.076;2023-02-13T14:31:39;102969.69;;;5.11;79.31
60974;BME280;46846;51.528;5.076;2023-02-13T14:36:47;102971.63;;;5.19;79.67
60974;BME280;46846;51.528;5.076;2023-02-13T14:39:31;102976.78;;;5.15;79.83
60974;BME280;46846;51.528;5.076;2023-02-13T14:42:00;102972.56;;;5.23;78.97
60974;BME280;46846;51.528;5.076;2023-02-13T14:44:44;102971.56;;;5.16;79.31
60974;BME280;46846;51.528;5.076;2023-02-13T14:47:21;102970.91;;;5.27;79.02
60974;BME280;46846;51.528;5.076;2023-02-13T14:49:48;102966.63;;;5.32;78.78
60974;BME280;46846;51.528;5.076;2023-02-13T14:52:17;102965.84;;;5.36;78.38
60974;BME280;46846;51.528;5.076;2023-02-13T14:54:49;102970.25;;;5.37;78.54
60974;BME280;46846;51.528;5.076;2023-02-13T14:57:30;102960.72;;;5.44;78.18
60974;BME280;46846;51.528;5.076;2023-02-13T15:00:00;102958.97;;;5.44;78.10
60974;BME280;46846;51.528;5.076;2023-02-13T15:02:32;102960.63;;;5.39;78.56
60974;BME280;46846;51.528;5.076;2023-02-13T15:05:01;102957.81;;;5.31;79.23
60974;BME280;46846;51.528;5.076;2023-02-13T15:07:37;102952.75;;;5.42;79.10
60974;BME280;46846;51.528;5.076;2023-02-13T15:10:41;102950.22;;;5.47;78.77
60974;BME280;46846;51.528;5.076;2023-02-13T15:13:20;102946.03;;;5.58;78.12
60974;BME280;46846;51.528;5.076;2023-02-13T15:15:54;102947.09;;;5.65;77.54
60974;BME280;46846;51.528;5.076;2023-02-13T15:18:24;102942.66;;;5.66;77.64
60974;BME280;46846;51.528;5.076;2023-02-13T15:20:53;102934.75;;;5.66;78.19
60974;BME280;46846;51.528;5.076;2023-02-13T15:23:22;102930.34;;;5.65;78.14
60974;BME280;46846;51.528;5.076;2023-02-13T15:26:06;102927.78;;;5.69;77.43
60974;BME280;46846;51.528;5.076;2023-02-13T15:28:32;102930.47;;;5.71;78.07
60974;BME280;46846;51.528;5.076;2023-02-13T15:31:04;102931.31;;;5.71;77.20
60974;BME280;46846;51.528;5.076;2023-02-13T15:33:42;102935.69;;;5.69;78.14
60974;BME280;46846;51.528;5.076;2023-02-13T15:36:19;102931.38;;;5.73;78.09